createdAt,value
2019-03-02T00:00:14.427Z,43.51
2019-03-02T00:01:14.732Z,43.48
2019-03-02T00:02:14.397Z,43.5
2019-03-02T00:03:14.437Z,43.54
2019-03-02T00:04:14.664Z,43.51
2019-03-02T00:05:14.361Z,43.49
2019-03-02T00:06:14.473Z,43.51
2019-03-02T00:07:14.788Z,43.5
2019-03-02T00:08:14.461Z,43.48
2019-03-02T00:09:14.540Z,43.45
2019-03-02T00:10:14.308Z,43.53
2019-03-02T00:11:14.436Z,43.5
2019-03-02T00:12:14.449Z,43.5
2019-03-02T00:13:14.296Z,43.51
2019-03-02T00:14:20.112Z,43.51
2019-03-02T00:15:14.628Z,43.53
2019-03-02T00:16:14.314Z,43.47
2019-03-02T00:17:20.435Z,43.47
2019-03-02T00:18:14.472Z,43.53
2019-03-02T00:19:14.344Z,43.49
2019-03-02T00:20:19.542Z,43.49
2019-03-02T00:21:14.475Z,43.51
2019-03-02T00:22:14.225Z,43.51
2019-03-02T00:23:19.988Z,43.49
2019-03-02T00:24:14.473Z,43.53
2019-03-02T00:25:14.273Z,43.52
2019-03-02T00:26:14.434Z,43.49
2019-03-02T00:27:14.386Z,43.52
2019-03-02T00:28:14.252Z,43.54
2019-03-02T00:29:14.406Z,43.5
2019-03-02T00:30:22.373Z,43.54
2019-03-02T00:31:14.555Z,43.49
2019-03-02T00:32:14.323Z,43.53
2019-03-02T00:33:21.339Z,43.51
2019-03-02T00:34:14.509Z,43.54
2019-03-02T00:35:14.324Z,43.51
2019-03-02T00:36:20.382Z,43.54
2019-03-02T00:37:14.545Z,43.52
2019-03-02T00:38:14.330Z,43.51
2019-03-02T00:39:20.178Z,43.52
2019-03-02T00:40:14.518Z,43.5
2019-03-02T00:41:14.357Z,43.51
2019-03-02T00:42:18.027Z,43.51
2019-03-02T00:43:14.506Z,43.5
2019-03-02T00:44:14.324Z,43.51
2019-03-02T00:45:15.787Z,43.53
2019-03-02T00:46:14.602Z,43.55
2019-03-02T00:47:14.363Z,43.5
2019-03-02T00:48:14.375Z,43.55
2019-03-02T00:49:14.513Z,43.51
2019-03-02T00:50:14.386Z,43.52
2019-03-02T00:51:14.445Z,43.51
2019-03-02T00:52:14.455Z,43.52
2019-03-02T00:53:14.337Z,43.55
2019-03-02T00:54:14.348Z,43.52
2019-03-02T00:55:14.443Z,43.54
2019-03-02T00:56:14.294Z,43.5
2019-03-02T00:57:19.831Z,43.55
2019-03-02T00:58:14.541Z,43.55
2019-03-02T00:59:14.342Z,43.52
2019-03-02T01:00:16.657Z,43.52
2019-03-02T01:01:14.507Z,43.49
2019-03-02T01:02:14.249Z,43.54
2019-03-02T01:03:17.107Z,43.52
2019-03-02T01:04:14.481Z,43.53
2019-03-02T01:05:14.261Z,43.5
2019-03-02T01:06:14.281Z,43.51
2019-03-02T01:07:14.471Z,43.49
2019-03-02T01:08:14.275Z,43.51
2019-03-02T01:09:14.319Z,43.55
2019-03-02T01:10:14.495Z,43.53
2019-03-02T01:11:14.364Z,43.54
2019-03-02T01:12:14.478Z,43.57
2019-03-02T01:13:23.302Z,43.49
2019-03-02T01:14:14.283Z,43.53
2019-03-02T01:15:14.350Z,43.52
2019-03-02T01:16:21.264Z,43.54
2019-03-02T01:17:14.248Z,43.5
2019-03-02T01:18:14.359Z,43.5
2019-03-02T01:19:18.638Z,43.49
2019-03-02T01:20:14.493Z,43.49
2019-03-02T01:21:14.407Z,43.49
2019-03-02T01:22:17.648Z,43.57
2019-03-02T01:23:14.869Z,43.55
2019-03-02T01:24:14.276Z,43.52
2019-03-02T01:25:14.753Z,43.54
2019-03-02T01:26:14.464Z,43.52
2019-03-02T01:27:14.431Z,43.54
2019-03-02T01:28:14.406Z,43.52
2019-03-02T01:29:20.641Z,43.54
2019-03-02T01:30:14.493Z,43.55
2019-03-02T01:31:14.408Z,43.53
2019-03-02T01:32:17.717Z,43.51
2019-03-02T01:33:14.306Z,43.5
2019-03-02T01:34:14.584Z,43.5
2019-03-02T01:35:21.922Z,43.52
2019-03-02T01:36:14.259Z,43.54
2019-03-02T01:37:14.330Z,43.5
2019-03-02T01:38:19.814Z,43.52
2019-03-02T01:39:14.273Z,43.53
2019-03-02T01:40:14.436Z,43.52
2019-03-02T01:41:19.309Z,43.55
2019-03-02T01:42:14.269Z,43.53
2019-03-02T01:43:14.373Z,43.5
2019-03-02T01:44:17.792Z,43.51
2019-03-02T01:45:14.252Z,43.5
2019-03-02T01:46:14.582Z,43.53
2019-03-02T01:47:17.211Z,43.5
2019-03-02T01:48:14.379Z,43.55
2019-03-02T01:49:14.377Z,43.53
2019-03-02T01:50:14.441Z,43.57
2019-03-02T01:51:14.286Z,43.54
2019-03-02T01:52:14.450Z,43.57
2019-03-02T01:53:14.421Z,43.49
2019-03-02T01:54:14.238Z,43.54
2019-03-02T01:55:14.352Z,43.51
2019-03-02T01:56:14.378Z,43.52
2019-03-02T01:57:18.203Z,43.48
2019-03-02T01:58:14.370Z,43.5
2019-03-02T01:59:14.634Z,43.48
2019-03-02T02:00:14.875Z,43.49
2019-03-02T02:01:14.381Z,43.48
2019-03-02T02:02:14.363Z,43.54
2019-03-02T02:03:14.219Z,43.5
2019-03-02T02:04:14.388Z,43.51
2019-03-02T02:05:14.453Z,43.49
2019-03-02T02:06:14.192Z,43.51
2019-03-02T02:07:19.585Z,43.46
2019-03-02T02:08:14.376Z,43.49
2019-03-02T02:09:14.354Z,43.5
2019-03-02T02:10:14.464Z,43.55
2019-03-02T02:11:19.200Z,43.53
2019-03-02T02:12:14.237Z,43.5
2019-03-02T02:13:14.303Z,43.51
2019-03-02T02:14:20.146Z,43.53
2019-03-02T02:15:14.219Z,43.48
2019-03-02T02:16:14.392Z,43.5
2019-03-02T02:17:18.933Z,43.46
2019-03-02T02:18:14.242Z,43.48
2019-03-02T02:19:14.384Z,43.47
2019-03-02T02:20:15.704Z,43.49
2019-03-02T02:21:14.508Z,43.52
2019-03-02T02:22:14.315Z,43.48
2019-03-02T02:23:14.427Z,43.49
2019-03-02T02:24:14.540Z,43.5
2019-03-02T02:25:14.311Z,43.46
2019-03-02T02:26:14.514Z,43.5
2019-03-02T02:27:14.579Z,43.49
2019-03-02T02:28:14.341Z,43.45
2019-03-02T02:29:14.389Z,43.47
2019-03-02T02:30:27.817Z,43.47
2019-03-02T02:31:14.363Z,43.44
2019-03-02T02:32:25.931Z,43.45
2019-03-02T02:33:14.484Z,43.48
2019-03-02T02:34:24.067Z,43.46
2019-03-02T02:35:14.203Z,43.47
2019-03-02T02:36:20.743Z,43.49
2019-03-02T02:37:14.421Z,43.43
2019-03-02T02:38:17.906Z,43.45
2019-03-02T02:39:14.459Z,43.52
2019-03-02T02:40:14.494Z,43.45
2019-03-02T02:41:25.460Z,43.49
2019-03-02T02:42:14.322Z,43.5
2019-03-02T02:43:22.635Z,43.46
2019-03-02T02:44:14.260Z,43.47
2019-03-02T02:45:17.067Z,43.48
2019-03-02T02:46:14.424Z,43.45
2019-03-02T02:47:14.468Z,43.48
2019-03-02T02:48:14.341Z,43.47
2019-03-02T02:49:14.430Z,43.49
2019-03-02T02:50:14.286Z,43.49
2019-03-02T02:51:14.400Z,43.47
2019-03-02T02:52:14.407Z,43.44
2019-03-02T02:53:14.270Z,43.44
2019-03-02T02:54:24.713Z,43.48
2019-03-02T02:55:14.432Z,43.44
2019-03-02T02:56:21.667Z,43.44
2019-03-02T02:57:14.373Z,43.45
2019-03-02T02:58:19.683Z,43.45
2019-03-02T02:59:14.522Z,43.48
2019-03-02T03:00:18.070Z,43.49
2019-03-02T03:01:14.375Z,43.48
2019-03-02T03:02:14.490Z,43.48
2019-03-02T03:03:22.846Z,43.5
2019-03-02T03:04:14.381Z,43.47
2019-03-02T03:05:17.860Z,43.5
2019-03-02T03:06:14.397Z,43.49
2019-03-02T03:07:14.694Z,43.49
2019-03-02T03:08:14.464Z,43.5
2019-03-02T03:09:14.366Z,43.49
2019-03-02T03:10:14.331Z,43.45
2019-03-02T03:11:14.463Z,43.45
2019-03-02T03:12:25.130Z,43.5
2019-03-02T03:13:14.318Z,43.5
2019-03-02T03:14:21.784Z,43.46
2019-03-02T03:15:14.611Z,43.51
2019-03-02T03:16:18.266Z,43.51
2019-03-02T03:17:14.515Z,43.49
2019-03-02T03:18:15.823Z,43.52
2019-03-02T03:19:14.371Z,43.51
2019-03-02T03:20:14.444Z,43.52
2019-03-02T03:21:14.267Z,43.51
2019-03-02T03:22:14.417Z,43.5
2019-03-02T03:23:14.418Z,43.46
2019-03-02T03:24:14.277Z,43.52
2019-03-02T03:25:19.809Z,43.49
2019-03-02T03:26:14.390Z,43.48
2019-03-02T03:27:15.080Z,43.48
2019-03-02T03:28:14.272Z,43.53
2019-03-02T03:29:14.426Z,43.48
2019-03-02T03:30:14.263Z,43.52
2019-03-02T03:31:32.097Z,43.5
2019-03-02T03:32:14.457Z,43.53
2019-03-02T03:33:14.564Z,43.5
2019-03-02T03:34:32.711Z,43.48
2019-03-02T03:35:20.702Z,43.46
2019-03-02T03:36:15.527Z,43.49
2019-03-02T03:37:15.422Z,43.5
2019-03-02T03:38:14.329Z,43.5
2019-03-02T03:39:14.365Z,43.52
2019-03-02T03:40:14.235Z,43.55
2019-03-02T03:41:14.379Z,43.51
2019-03-02T03:42:25.091Z,43.5
2019-03-02T03:43:14.520Z,43.48
2019-03-02T03:44:28.031Z,43.49
2019-03-02T03:45:14.293Z,43.45
2019-03-02T03:46:24.155Z,43.44
2019-03-02T03:47:14.280Z,43.51
2019-03-02T03:48:19.718Z,43.53
2019-03-02T03:49:14.518Z,43.53
2019-03-02T03:50:16.180Z,43.48
2019-03-02T03:51:14.319Z,43.47
2019-03-02T03:52:14.385Z,43.47
2019-03-02T03:53:14.405Z,43.49
2019-03-02T03:54:14.323Z,43.51
2019-03-02T03:55:27.921Z,43.49
2019-03-02T03:56:14.303Z,43.5
2019-03-02T03:57:23.172Z,43.49
2019-03-02T03:58:14.694Z,43.51
2019-03-02T03:59:20.927Z,43.5
2019-03-02T04:00:14.240Z,43.48
2019-03-02T04:01:19.494Z,43.47
2019-03-02T04:02:14.426Z,43.5
2019-03-02T04:03:15.326Z,43.54
2019-03-02T04:04:14.378Z,43.49
2019-03-02T04:05:14.373Z,43.5
2019-03-02T04:06:14.270Z,43.49
2019-03-02T04:07:14.342Z,43.5
2019-03-02T04:08:14.435Z,43.46
2019-03-02T04:09:14.383Z,43.54
2019-03-02T04:10:14.449Z,43.49
2019-03-02T04:11:14.402Z,43.51
2019-03-02T04:12:14.339Z,43.5
2019-03-02T04:13:14.416Z,43.5
2019-03-02T04:14:25.072Z,43.51
2019-03-02T04:15:14.205Z,43.46
2019-03-02T04:16:23.347Z,43.49
2019-03-02T04:17:14.360Z,43.5
2019-03-02T04:18:17.795Z,43.5
2019-03-02T04:19:14.411Z,43.46
2019-03-02T04:20:14.702Z,43.47
2019-03-02T04:21:14.377Z,43.5
2019-03-02T04:22:14.327Z,43.45
2019-03-02T04:23:23.634Z,43.5
2019-03-02T04:24:14.485Z,43.5
2019-03-02T04:25:19.866Z,43.47
2019-03-02T04:26:14.294Z,43.5
2019-03-02T04:27:17.374Z,43.46
2019-03-02T04:28:14.293Z,43.46
2019-03-02T04:29:14.346Z,43.43
2019-03-02T04:30:14.470Z,43.5
2019-03-02T04:31:14.238Z,43.48
2019-03-02T04:32:14.253Z,43.46
2019-03-02T04:33:14.448Z,43.47
2019-03-02T04:34:23.201Z,43.46
2019-03-02T04:35:14.258Z,43.47
2019-03-02T04:36:14.403Z,43.48
2019-03-02T04:37:14.128Z,43.45
2019-03-02T04:38:14.266Z,43.46
2019-03-02T04:39:15.319Z,43.46
2019-03-02T04:40:14.421Z,43.41
2019-03-02T04:41:14.242Z,43.43
2019-03-02T04:42:15.698Z,43.46
2019-03-02T04:43:14.391Z,43.47
2019-03-02T04:44:14.230Z,43.42
2019-03-02T04:45:14.294Z,43.45
2019-03-02T04:46:16.869Z,43.41
2019-03-02T04:47:14.184Z,43.48
2019-03-02T04:48:14.365Z,43.48
2019-03-02T04:49:15.777Z,43.53
2019-03-02T04:50:14.226Z,43.49
2019-03-02T04:51:14.430Z,43.48
2019-03-02T04:52:15.613Z,43.54
2019-03-02T04:53:14.190Z,43.5
2019-03-02T04:54:14.352Z,43.5
2019-03-02T04:55:15.085Z,43.59
2019-03-02T04:56:14.211Z,43.58
2019-03-02T04:57:14.342Z,43.54
2019-03-02T04:58:14.407Z,43.53
2019-03-02T04:59:14.341Z,43.48
2019-03-02T05:00:14.387Z,43.49
2019-03-02T05:01:14.403Z,43.45
2019-03-02T05:02:20.761Z,43.43
2019-03-02T05:03:14.536Z,43.38
2019-03-02T05:04:14.349Z,43.43
2019-03-02T05:05:14.286Z,43.4
2019-03-02T05:06:20.131Z,43.31
2019-03-02T05:07:14.539Z,43.32
2019-03-02T05:08:14.183Z,43.29
2019-03-02T05:09:18.149Z,43.41
2019-03-02T05:10:14.338Z,43.35
2019-03-02T05:11:14.199Z,43.33
2019-03-02T05:12:15.712Z,43.39
2019-03-02T05:13:14.371Z,43.32
2019-03-02T05:14:14.187Z,43.31
2019-03-02T05:15:17.887Z,43.24
2019-03-02T05:16:14.357Z,43.35
2019-03-02T05:17:14.348Z,43.31
2019-03-02T05:18:19.122Z,43.32
2019-03-02T05:19:14.303Z,43.29
2019-03-02T05:20:14.214Z,43.34
2019-03-02T05:21:14.313Z,43.39
2019-03-02T05:22:19.970Z,43.3
2019-03-02T05:23:14.175Z,43.3
2019-03-02T05:24:14.485Z,43.31
2019-03-02T05:25:20.388Z,43.33
2019-03-02T05:26:14.190Z,43.43
2019-03-02T05:27:14.366Z,43.38
2019-03-02T05:28:14.412Z,43.43
2019-03-02T05:29:18.700Z,43.36
2019-03-02T05:30:14.261Z,43.47
2019-03-02T05:31:14.293Z,43.31
2019-03-02T05:32:16.976Z,43.39
2019-03-02T05:33:14.312Z,43.32
2019-03-02T05:34:14.386Z,43.35
2019-03-02T05:35:17.107Z,43.37
2019-03-02T05:36:14.299Z,43.29
2019-03-02T05:37:14.451Z,43.43
2019-03-02T05:38:16.315Z,43.39
2019-03-02T05:39:18.255Z,43.4
2019-03-02T05:40:14.469Z,43.38
2019-03-02T05:41:14.161Z,43.36
2019-03-02T05:42:14.824Z,43.46
2019-03-02T05:43:14.295Z,43.45
2019-03-02T05:44:14.169Z,43.47
2019-03-02T05:45:14.423Z,43.33
2019-03-02T05:46:14.457Z,43.37
2019-03-02T05:47:14.225Z,43.45
2019-03-02T05:48:14.301Z,43.38
2019-03-02T05:49:19.668Z,43.46
2019-03-02T05:50:14.446Z,43.36
2019-03-02T05:51:14.336Z,43.37
2019-03-02T05:52:18.963Z,43.32
2019-03-02T05:53:14.146Z,43.35
2019-03-02T05:54:14.323Z,43.38
2019-03-02T05:55:19.399Z,43.4
2019-03-02T05:56:14.285Z,43.38
2019-03-02T05:57:14.291Z,43.37
2019-03-02T05:58:17.377Z,43.32
2019-03-02T05:59:14.196Z,43.29
2019-03-02T06:00:14.307Z,43.38
2019-03-02T06:01:14.361Z,43.35
2019-03-02T06:02:18.425Z,43.3
2019-03-02T06:03:14.334Z,43.35
2019-03-02T06:04:14.464Z,43.33
2019-03-02T06:05:14.196Z,43.39
2019-03-02T06:06:14.273Z,43.35
2019-03-02T06:07:14.782Z,43.33
2019-03-02T06:08:14.271Z,43.34
2019-03-02T06:09:15.123Z,43.37
2019-03-02T06:10:14.396Z,43.31
2019-03-02T06:11:14.127Z,43.32
2019-03-02T06:12:16.566Z,43.35
2019-03-02T06:13:14.338Z,43.31
2019-03-02T06:14:14.259Z,43.28
2019-03-02T06:15:14.294Z,43.32
2019-03-02T06:16:23.107Z,43.28
2019-03-02T06:17:14.133Z,43.31
2019-03-02T06:18:14.268Z,43.28
2019-03-02T06:19:24.379Z,43.29
2019-03-02T06:20:14.268Z,43.31
2019-03-02T06:21:14.275Z,43.29
2019-03-02T06:22:22.073Z,43.28
2019-03-02T06:23:14.117Z,43.28
2019-03-02T06:24:15.742Z,43.24
2019-03-02T06:25:23.495Z,43.22
2019-03-02T06:26:14.424Z,43.27
2019-03-02T06:27:14.272Z,43.25
2019-03-02T06:28:14.569Z,43.23
2019-03-02T06:29:14.801Z,43.17
2019-03-02T06:30:14.241Z,43.16
2019-03-02T06:31:20.253Z,43.21
2019-03-02T06:32:14.400Z,43.22
2019-03-02T06:33:14.212Z,43.19
2019-03-02T06:34:20.859Z,43.19
2019-03-02T06:35:14.591Z,43.15
2019-03-02T06:36:14.170Z,43.21
2019-03-02T06:37:21.016Z,43.18
2019-03-02T06:38:14.295Z,43.12
2019-03-02T06:39:14.245Z,43.16
2019-03-02T06:40:23.996Z,43.13
2019-03-02T06:41:14.290Z,43.14
2019-03-02T06:42:14.173Z,43.1
2019-03-02T06:43:14.250Z,43.17
2019-03-02T06:44:14.267Z,43.16
2019-03-02T06:45:14.176Z,43.11
2019-03-02T06:46:23.712Z,43.12
2019-03-02T06:47:14.316Z,43.12
2019-03-02T06:48:14.156Z,43.04
2019-03-02T06:49:21.388Z,43.02
2019-03-02T06:50:14.318Z,43.1
2019-03-02T06:51:14.093Z,43.09
2019-03-02T06:52:14.167Z,43.02
2019-03-02T06:53:14.326Z,43.07
2019-03-02T06:54:14.415Z,43.07
2019-03-02T06:55:14.206Z,43
2019-03-02T06:56:16.079Z,43.07
2019-03-02T06:57:15.270Z,43.01
2019-03-02T06:58:14.144Z,43
2019-03-02T06:59:14.257Z,43.05
2019-03-02T07:00:15.209Z,43.05
2019-03-02T07:01:14.113Z,43.06
2019-03-02T07:02:14.326Z,43.01
2019-03-02T07:03:14.363Z,43.01
2019-03-02T07:04:23.333Z,43
2019-03-02T07:05:14.351Z,43
2019-03-02T07:06:14.494Z,43.03
2019-03-02T07:07:14.118Z,43
2019-03-02T07:08:14.299Z,42.97
2019-03-02T07:09:14.359Z,42.98
2019-03-02T07:10:23.176Z,42.96
2019-03-02T07:11:14.314Z,42.94
2019-03-02T07:12:14.437Z,42.96
2019-03-02T07:13:14.191Z,43
2019-03-02T07:14:16.402Z,42.94
2019-03-02T07:15:14.303Z,43.02
2019-03-02T07:16:20.966Z,42.96
2019-03-02T07:17:14.277Z,42.95
2019-03-02T07:18:14.349Z,42.93
2019-03-02T07:19:17.950Z,42.91
2019-03-02T07:20:14.252Z,42.95
2019-03-02T07:21:14.435Z,42.92
2019-03-02T07:22:18.290Z,42.94
2019-03-02T07:23:14.232Z,42.87
2019-03-02T07:24:14.391Z,42.88
2019-03-02T07:25:14.954Z,42.87
2019-03-02T07:26:21.153Z,42.88
2019-03-02T07:27:14.328Z,42.86
2019-03-02T07:28:14.242Z,42.9
2019-03-02T07:29:18.947Z,42.84
2019-03-02T07:30:14.298Z,42.9
2019-03-02T07:31:14.103Z,42.85
2019-03-02T07:32:14.226Z,42.86
2019-03-02T07:33:14.416Z,42.84
2019-03-02T07:34:14.435Z,42.85
2019-03-02T07:35:20.874Z,42.81
2019-03-02T07:36:14.367Z,42.84
2019-03-02T07:37:14.105Z,42.78
2019-03-02T07:38:21.861Z,42.81
2019-03-02T07:39:14.262Z,42.84
2019-03-02T07:40:14.125Z,42.78
2019-03-02T07:41:14.204Z,42.86
2019-03-02T07:42:14.270Z,42.83
2019-03-02T07:43:14.151Z,42.76
2019-03-02T07:44:14.221Z,42.78
2019-03-02T07:45:14.387Z,42.77
2019-03-02T07:46:14.194Z,42.77
2019-03-02T07:47:14.187Z,42.76
2019-03-02T07:48:14.342Z,42.79
2019-03-02T07:49:14.613Z,42.83
2019-03-02T07:50:14.212Z,42.79
2019-03-02T07:51:14.231Z,42.78
2019-03-02T07:52:18.760Z,42.75
2019-03-02T07:53:14.270Z,42.79
2019-03-02T07:54:14.254Z,42.74
2019-03-02T07:55:22.797Z,42.74
2019-03-02T07:56:14.258Z,42.8
2019-03-02T07:57:14.191Z,42.73
2019-03-02T07:58:21.059Z,42.72
2019-03-02T07:59:14.174Z,42.75
2019-03-02T08:00:14.142Z,42.71
2019-03-02T08:01:18.055Z,42.73
2019-03-02T08:02:14.159Z,42.72
2019-03-02T08:03:14.194Z,42.72
2019-03-02T08:04:14.358Z,42.74
2019-03-02T08:05:15.627Z,42.7
2019-03-02T08:06:14.290Z,42.71
2019-03-02T08:07:14.108Z,42.73
2019-03-02T08:08:15.255Z,42.7
2019-03-02T08:09:14.219Z,42.7
2019-03-02T08:10:14.124Z,42.7
2019-03-02T08:11:14.573Z,42.66
2019-03-02T08:12:14.419Z,42.68
2019-03-02T08:13:14.184Z,42.69
2019-03-02T08:14:16.417Z,42.66
2019-03-02T08:15:14.223Z,42.65
2019-03-02T08:16:14.534Z,42.68
2019-03-02T08:17:14.727Z,42.68
2019-03-02T08:18:14.579Z,42.65
2019-03-02T08:19:14.227Z,42.66
2019-03-02T08:20:16.705Z,42.68
2019-03-02T08:21:14.356Z,42.67
2019-03-02T08:22:14.149Z,42.65
2019-03-02T08:23:14.925Z,42.62
2019-03-02T08:24:14.406Z,42.69
2019-03-02T08:25:14.107Z,42.64
2019-03-02T08:26:14.263Z,42.68
2019-03-02T08:27:14.234Z,42.61
2019-03-02T08:28:14.113Z,42.65
2019-03-02T08:29:14.229Z,42.62
2019-03-02T08:30:14.281Z,42.64
2019-03-02T08:31:14.208Z,42.61
2019-03-02T08:32:14.195Z,42.67
2019-03-02T08:33:14.326Z,42.62
2019-03-02T08:34:14.182Z,42.6
2019-03-02T08:35:14.219Z,42.62
2019-03-02T08:36:18.515Z,42.56
2019-03-02T08:37:14.222Z,42.6
2019-03-02T08:38:14.353Z,42.64
2019-03-02T08:39:14.977Z,42.63
2019-03-02T08:40:14.103Z,42.56
2019-03-02T08:41:14.193Z,42.6
2019-03-02T08:42:14.357Z,42.59
2019-03-02T08:43:17.444Z,42.57
2019-03-02T08:44:20.081Z,42.58
2019-03-02T08:45:14.255Z,42.6
2019-03-02T08:46:14.032Z,42.56
2019-03-02T08:47:14.246Z,42.52
2019-03-02T08:48:14.624Z,42.58
2019-03-02T08:49:14.098Z,42.53
2019-03-02T08:50:19.227Z,42.56
2019-03-02T08:51:14.415Z,42.53
2019-03-02T08:52:14.123Z,42.53
2019-03-02T08:53:14.248Z,42.54
2019-03-02T08:54:14.297Z,42.51
2019-03-02T08:55:14.123Z,42.57
2019-03-02T08:56:14.184Z,42.5
2019-03-02T08:57:14.458Z,42.53
2019-03-02T08:58:14.165Z,42.51
2019-03-02T08:59:14.248Z,42.51
2019-03-02T09:00:14.197Z,42.51
2019-03-02T09:01:20.012Z,42.5
2019-03-02T09:02:14.287Z,42.54
2019-03-02T09:03:14.040Z,42.53
2019-03-02T09:04:15.354Z,42.55
2019-03-02T09:05:14.274Z,42.55
2019-03-02T09:06:14.076Z,42.51
2019-03-02T09:07:14.128Z,42.52
2019-03-02T09:08:14.360Z,42.53
2019-03-02T09:09:14.094Z,42.54
2019-03-02T09:10:14.776Z,42.54
2019-03-02T09:11:14.286Z,42.53
2019-03-02T09:12:14.146Z,42.5
2019-03-02T09:13:14.187Z,42.51
2019-03-02T09:14:14.361Z,42.54
2019-03-02T09:15:14.029Z,42.51
2019-03-02T09:16:14.089Z,42.49
2019-03-02T09:17:19.102Z,42.49
2019-03-02T09:18:14.132Z,42.47
2019-03-02T09:19:24.389Z,42.46
2019-03-02T09:20:14.403Z,42.5
2019-03-02T09:21:14.263Z,42.47
2019-03-02T09:22:14.474Z,42.46
2019-03-02T09:23:15.393Z,42.47
2019-03-02T09:24:14.481Z,42.4
2019-03-02T09:25:14.251Z,42.46
2019-03-02T09:26:15.243Z,42.44
2019-03-02T09:27:14.397Z,42.67
2019-03-02T09:28:14.436Z,42.72
2019-03-02T09:29:14.141Z,42.87
2019-03-02T09:30:14.610Z,42.85
2019-03-02T09:31:14.041Z,43.07
2019-03-02T09:32:15.373Z,43.26
2019-03-02T09:33:14.403Z,43.14
2019-03-02T09:34:14.081Z,42.96
2019-03-02T09:35:17.496Z,43.01
2019-03-02T09:36:14.172Z,42.79
2019-03-02T09:37:14.412Z,42.97
2019-03-02T09:38:22.601Z,42.95
2019-03-02T09:39:14.146Z,42.77
2019-03-02T09:40:14.820Z,42.71
2019-03-02T09:41:14.054Z,42.78
2019-03-02T09:42:14.141Z,42.63
2019-03-02T09:43:17.352Z,42.49
2019-03-02T09:44:14.662Z,42.7
2019-03-02T09:45:14.237Z,42.78
2019-03-02T09:46:14.436Z,43.27
2019-03-02T09:47:14.066Z,42.46
2019-03-02T09:48:14.089Z,42.45
2019-03-02T09:49:14.237Z,42.48
2019-03-02T09:50:14.788Z,42.55
2019-03-02T09:51:14.738Z,42.6
2019-03-02T09:52:14.213Z,42.59
2019-03-02T09:53:14.385Z,42.65
2019-03-02T09:54:14.130Z,42.59
2019-03-02T09:55:21.764Z,42.63
2019-03-02T09:56:16.504Z,42.73
2019-03-02T09:57:14.093Z,42.64
2019-03-02T09:58:14.376Z,42.69
2019-03-02T09:59:14.221Z,42.64
2019-03-02T10:00:14.058Z,42.7
2019-03-02T10:01:14.226Z,42.72
2019-03-02T10:02:15.959Z,42.8
2019-03-02T10:03:14.084Z,42.98
2019-03-02T10:04:14.177Z,42.98
2019-03-02T10:05:15.781Z,42.81
2019-03-02T10:06:14.028Z,42.72
2019-03-02T10:07:14.157Z,42.66
2019-03-02T10:08:14.525Z,42.58
2019-03-02T10:09:14.010Z,42.44
2019-03-02T10:10:14.197Z,42.37
2019-03-02T10:11:14.246Z,42.36
2019-03-02T10:12:15.433Z,42.31
2019-03-02T10:13:14.246Z,42.27
2019-03-02T10:14:14.227Z,42.23
2019-03-02T10:15:14.084Z,42.24
2019-03-02T10:16:14.223Z,42.17
2019-03-02T10:17:14.221Z,42.05
2019-03-02T10:18:15.084Z,42.35
2019-03-02T10:19:14.239Z,42.09
2019-03-02T10:20:14.196Z,42.11
2019-03-02T10:21:14.154Z,42.27
2019-03-02T10:22:14.152Z,42.7
2019-03-02T10:23:14.347Z,42.41
2019-03-02T10:24:18.295Z,42.38
2019-03-02T10:25:14.140Z,42.48
2019-03-02T10:26:14.324Z,42.52
2019-03-02T10:27:22.665Z,42.47
2019-03-02T10:28:14.325Z,42.69
2019-03-02T10:29:14.200Z,42.59
2019-03-02T10:30:14.064Z,42.57
2019-03-02T10:31:14.202Z,42.65
2019-03-02T10:32:14.237Z,42.57
2019-03-02T10:33:14.094Z,42.54
2019-03-02T10:34:14.278Z,42.51
2019-03-02T10:35:18.446Z,42.71
2019-03-02T10:36:14.152Z,42.58
2019-03-02T10:37:14.154Z,42.71
2019-03-02T10:38:20.281Z,42.76
2019-03-02T10:39:14.296Z,42.73
2019-03-02T10:40:14.205Z,42.74
2019-03-02T10:41:21.692Z,42.79
2019-03-02T10:42:14.063Z,42.78
2019-03-02T10:43:14.253Z,42.73
2019-03-02T10:44:14.336Z,42.66
2019-03-02T10:45:14.184Z,42.64
2019-03-02T10:46:14.091Z,42.82
2019-03-02T10:47:15.304Z,42.76
2019-03-02T10:48:14.374Z,42.69
2019-03-02T10:49:14.164Z,42.7
2019-03-02T10:50:14.223Z,42.81
2019-03-02T10:51:14.183Z,42.79
2019-03-02T10:52:14.694Z,42.89
2019-03-02T10:53:14.346Z,42.73
2019-03-02T10:54:14.031Z,42.77
2019-03-02T10:55:14.261Z,42.97
2019-03-02T10:56:14.230Z,42.96
2019-03-02T10:57:14.018Z,42.66
2019-03-02T10:58:14.279Z,42.65
2019-03-02T10:59:16.764Z,42.73
2019-03-02T11:00:14.094Z,42.74
2019-03-02T11:01:14.202Z,42.78
2019-03-02T11:02:21.274Z,42.81
2019-03-02T11:03:14.386Z,42.6
2019-03-02T11:04:14.064Z,42.61
2019-03-02T11:05:21.283Z,42.76
2019-03-02T11:06:14.317Z,42.75
2019-03-02T11:07:14.211Z,42.98
2019-03-02T11:08:14.178Z,42.72
2019-03-02T11:09:22.968Z,42.66
2019-03-02T11:10:17.668Z,42.68
2019-03-02T11:11:14.116Z,42.67
2019-03-02T11:12:14.232Z,42.62
2019-03-02T11:13:20.972Z,42.62
2019-03-02T11:14:14.148Z,42.55
2019-03-02T11:15:14.281Z,42.6
2019-03-02T11:16:14.076Z,42.6
2019-03-02T11:17:14.263Z,42.6
2019-03-02T11:18:14.289Z,42.62
2019-03-02T11:19:14.342Z,42.68
2019-03-02T11:20:14.170Z,42.62
2019-03-02T11:21:14.317Z,42.65
2019-03-02T11:22:16.843Z,42.66
2019-03-02T11:23:23.465Z,42.78
2019-03-02T11:24:14.271Z,42.76
2019-03-02T11:25:14.018Z,43.07
2019-03-02T11:26:14.121Z,42.97
2019-03-02T11:27:14.370Z,43.09
2019-03-02T11:28:14.135Z,43.04
2019-03-02T11:29:14.182Z,43.02
2019-03-02T11:30:14.385Z,42.95
2019-03-02T11:31:14.550Z,43.05
2019-03-02T11:32:21.690Z,43.01
2019-03-02T11:33:14.185Z,42.86
2019-03-02T11:34:14.056Z,42.91
2019-03-02T11:35:14.141Z,42.93
2019-03-02T11:36:15.319Z,42.85
2019-03-02T11:37:14.065Z,42.86
2019-03-02T11:38:14.067Z,42.85
2019-03-02T11:39:18.607Z,42.83
2019-03-02T11:40:14.249Z,42.78
2019-03-02T11:41:14.038Z,42.99
2019-03-02T11:42:15.181Z,42.71
2019-03-02T11:43:17.522Z,42.76
2019-03-02T11:44:14.057Z,42.7
2019-03-02T11:45:14.889Z,42.79
2019-03-02T11:46:14.350Z,42.78
2019-03-02T11:47:14.075Z,42.59
2019-03-02T11:48:17.639Z,42.72
2019-03-02T11:49:14.212Z,42.49
2019-03-02T11:50:15.925Z,42.46
2019-03-02T11:51:14.199Z,42.53
2019-03-02T11:52:14.603Z,42.5
2019-03-02T11:53:17.276Z,42.53
2019-03-02T11:54:14.415Z,42.53
2019-03-02T11:55:14.264Z,42.58
2019-03-02T11:56:27.673Z,42.64
2019-03-02T11:57:14.144Z,42.59
2019-03-02T11:58:14.317Z,42.63
2019-03-02T11:59:14.041Z,42.67
2019-03-02T12:00:14.226Z,42.62
2019-03-02T12:01:14.189Z,42.66
2019-03-02T12:02:25.098Z,42.66
2019-03-02T12:03:14.169Z,42.66
2019-03-02T12:04:16.530Z,42.69
2019-03-02T12:05:13.974Z,42.69
2019-03-02T12:06:14.101Z,42.65
2019-03-02T12:07:14.291Z,42.65
2019-03-02T12:08:14.035Z,42.68
2019-03-02T12:09:14.168Z,42.64
2019-03-02T12:10:14.213Z,42.64
2019-03-02T12:11:14.013Z,42.65
2019-03-02T12:12:14.148Z,42.65
2019-03-02T12:13:14.185Z,42.61
2019-03-02T12:14:14.131Z,42.65
2019-03-02T12:15:14.352Z,42.61
2019-03-02T12:16:14.236Z,42.87
2019-03-02T12:17:14.168Z,42.8
2019-03-02T12:18:19.791Z,42.68
2019-03-02T12:19:14.166Z,42.44
2019-03-02T12:20:14.611Z,42.26
2019-03-02T12:21:14.214Z,42.13
2019-03-02T12:22:14.341Z,42.13
2019-03-02T12:23:14.364Z,42.16
2019-03-02T12:24:23.471Z,41.98
2019-03-02T12:25:14.381Z,42.04
2019-03-02T12:26:14.159Z,41.99
2019-03-02T12:27:14.215Z,42.1
2019-03-02T12:28:14.280Z,41.89
2019-03-02T12:29:15.194Z,42.08
2019-03-02T12:30:14.221Z,42.1
2019-03-02T12:31:14.055Z,41.82
2019-03-02T12:32:14.104Z,41.95
2019-03-02T12:33:22.505Z,42
2019-03-02T12:34:14.042Z,42.1
2019-03-02T12:35:14.110Z,42.2
2019-03-02T12:36:17.473Z,42.22
2019-03-02T12:37:14.267Z,42.29
2019-03-02T12:38:14.160Z,42.31
2019-03-02T12:39:14.220Z,42.3
2019-03-02T12:40:14.260Z,42.29
2019-03-02T12:41:16.933Z,42.37
2019-03-02T12:42:14.191Z,42.38
2019-03-02T12:43:14.463Z,42.37
2019-03-02T12:44:22.653Z,42.39
2019-03-02T12:45:14.143Z,42.42
2019-03-02T12:46:17.247Z,42.38
2019-03-02T12:47:14.052Z,42.43
2019-03-02T12:48:14.193Z,42.34
2019-03-02T12:49:14.286Z,42.37
2019-03-02T12:50:14.054Z,42.39
2019-03-02T12:51:14.114Z,42.38
2019-03-02T12:52:16.773Z,42.42
2019-03-02T12:53:16.487Z,42.38
2019-03-02T12:54:14.471Z,42.39
2019-03-02T12:55:22.093Z,42.35
2019-03-02T12:56:14.072Z,42.38